createdAt,value
2023-03-16T00:00:15.282Z,98.34
2023-03-16T00:02:42.274Z,98.50
2023-03-16T00:05:10.137Z,98.75
2023-03-16T00:07:38.096Z,98.54
2023-03-16T00:10:05.625Z,98.79
2023-03-16T00:12:35.145Z,98.26
2023-03-16T00:15:03.506Z,98.14
2023-03-16T00:17:31.648Z,98.63
2023-03-16T00:19:58.380Z,99.18
2023-03-16T00:22:26.272Z,99.37
2023-03-16T00:24:53.221Z,98.59
2023-03-16T00:27:23.132Z,98.64
2023-03-16T00:29:56.211Z,98.93
2023-03-16T00:32:27.289Z,99.36
2023-03-16T00:34:54.176Z,99.30
2023-03-16T00:37:23.811Z,99.38
2023-03-16T00:39:50.858Z,99.46
2023-03-16T00:42:18.431Z,100.00
2023-03-16T00:44:45.392Z,100.00
2023-03-16T00:47:15.101Z,100.00
2023-03-16T00:49:43.255Z,100.00
2023-03-16T00:52:15.027Z,100.00
2023-03-16T00:54:46.032Z,100.00
2023-03-16T00:57:14.096Z,99.89
2023-03-16T00:59:41.220Z,100.00
2023-03-16T01:02:08.667Z,100.00
2023-03-16T01:04:36.731Z,100.00
2023-03-16T01:07:04.572Z,100.00
2023-03-16T01:09:32.097Z,100.00
2023-03-16T01:11:58.971Z,100.00
2023-03-16T01:14:25.844Z,100.00
2023-03-16T01:16:52.705Z,100.00
2023-03-16T01:19:19.657Z,100.00
2023-03-16T01:21:46.499Z,100.00
2023-03-16T01:24:13.285Z,100.00
2023-03-16T01:26:41.298Z,100.00
2023-03-16T01:29:08.187Z,100.00
2023-03-16T01:31:34.982Z,100.00
2023-03-16T01:34:05.354Z,100.00
2023-03-16T01:36:34.737Z,100.00
2023-03-16T01:39:03.678Z,100.00
2023-03-16T01:41:30.614Z,100.00
2023-03-16T01:44:00.853Z,100.00
2023-03-16T01:46:29.599Z,100.00
2023-03-16T01:49:16.669Z,100.00
2023-03-16T01:51:43.999Z,100.00
2023-03-16T01:54:16.305Z,100.00
2023-03-16T01:56:52.673Z,100.00
2023-03-16T01:59:23.024Z,100.00
2023-03-16T02:01:52.183Z,100.00
2023-03-16T02:04:27.164Z,100.00
2023-03-16T02:06:55.325Z,100.00
2023-03-16T02:09:22.701Z,100.00
2023-03-16T02:11:49.512Z,100.00
2023-03-16T02:14:16.392Z,100.00
2023-03-16T02:16:43.412Z,100.00
2023-03-16T02:19:17.002Z,100.00
2023-03-16T02:21:46.717Z,100.00
2023-03-16T02:24:13.522Z,100.00
2023-03-16T02:26:40.238Z,100.00
2023-03-16T02:29:14.051Z,100.00
2023-03-16T02:31:42.133Z,100.00
2023-03-16T02:34:09.769Z,100.00
2023-03-16T02:36:39.201Z,100.00
2023-03-16T02:39:06.311Z,100.00
2023-03-16T02:41:33.280Z,100.00
2023-03-16T02:44:00.024Z,100.00
2023-03-16T02:46:28.296Z,100.00
2023-03-16T02:49:13.785Z,100.00
2023-03-16T02:51:41.261Z,100.00
2023-03-16T02:54:08.217Z,100.00
2023-03-16T02:56:35.184Z,100.00
2023-03-16T02:59:02.048Z,100.00
2023-03-16T03:01:28.896Z,100.00
2023-03-16T03:03:56.910Z,100.00
2023-03-16T03:06:24.965Z,100.00
2023-03-16T03:08:52.531Z,100.00
2023-03-16T03:11:20.005Z,100.00
2023-03-16T03:13:47.395Z,100.00
2023-03-16T03:16:14.600Z,100.00
2023-03-16T03:18:41.456Z,100.00
2023-03-16T03:21:14.566Z,100.00
2023-03-16T03:23:41.338Z,100.00
2023-03-16T03:26:08.294Z,100.00
2023-03-16T03:28:35.218Z,100.00
2023-03-16T03:31:08.246Z,100.00
2023-03-16T03:33:35.084Z,100.00
2023-03-16T03:36:02.972Z,100.00
2023-03-16T03:38:30.220Z,100.00
2023-03-16T03:41:09.392Z,100.00
2023-03-16T03:43:36.148Z,100.00
2023-03-16T03:46:06.730Z,100.00
2023-03-16T03:48:34.666Z,100.00
2023-03-16T03:51:01.502Z,100.00
2023-03-16T03:53:28.273Z,100.00
2023-03-16T03:55:55.153Z,100.00
2023-03-16T03:58:22.891Z,100.00
2023-03-16T04:00:49.657Z,100.00
2023-03-16T04:03:17.930Z,100.00
2023-03-16T04:05:44.620Z,100.00
2023-03-16T04:08:12.034Z,100.00
2023-03-16T04:10:38.830Z,100.00
2023-03-16T04:13:05.862Z,100.00
2023-03-16T04:15:34.473Z,100.00
2023-03-16T04:18:02.191Z,100.00
2023-03-16T04:20:30.026Z,100.00
2023-03-16T04:22:58.802Z,100.00
2023-03-16T04:25:30.818Z,100.00
2023-03-16T04:27:57.647Z,100.00
2023-03-16T04:30:25.655Z,100.00
2023-03-16T04:32:53.834Z,100.00
2023-03-16T04:35:20.564Z,100.00
2023-03-16T04:37:47.327Z,100.00
2023-03-16T04:40:17.065Z,100.00
2023-03-16T04:42:45.349Z,100.00
2023-03-16T04:45:12.712Z,100.00
2023-03-16T04:47:39.849Z,100.00
2023-03-16T04:50:07.391Z,100.00
2023-03-16T04:52:34.306Z,100.00
2023-03-16T04:55:00.997Z,100.00
2023-03-16T04:57:27.827Z,100.00
2023-03-16T04:59:54.598Z,100.00
2023-03-16T05:02:21.337Z,100.00
2023-03-16T05:04:48.672Z,100.00
2023-03-16T05:07:15.486Z,100.00
2023-03-16T05:09:42.356Z,100.00
2023-03-16T05:12:09.926Z,100.00
2023-03-16T05:14:36.827Z,100.00
2023-03-16T05:17:06.536Z,100.00
2023-03-16T05:19:34.156Z,100.00
2023-03-16T05:22:02.365Z,100.00
2023-03-16T05:24:29.121Z,100.00
2023-03-16T05:26:55.905Z,100.00
2023-03-16T05:29:22.686Z,100.00
2023-03-16T05:31:49.472Z,100.00
2023-03-16T05:34:16.290Z,100.00
2023-03-16T05:36:45.248Z,100.00
2023-03-16T05:39:12.081Z,100.00
2023-03-16T05:41:39.302Z,100.00
2023-03-16T05:44:06.379Z,100.00
2023-03-16T05:46:33.759Z,100.00
2023-03-16T05:49:00.588Z,100.00
2023-03-16T05:51:27.444Z,100.00
2023-03-16T05:53:57.395Z,100.00
2023-03-16T05:56:27.704Z,100.00
2023-03-16T05:58:55.391Z,100.00
2023-03-16T06:01:22.715Z,100.00
2023-03-16T06:03:50.326Z,100.00
2023-03-16T06:06:18.350Z,100.00
2023-03-16T06:08:45.177Z,100.00
2023-03-16T06:11:12.238Z,100.00
2023-03-16T06:13:39.261Z,100.00
2023-03-16T06:16:11.721Z,100.00
2023-03-16T06:18:39.876Z,100.00
2023-03-16T06:21:14.936Z,100.00
2023-03-16T06:23:41.700Z,100.00
2023-03-16T06:26:08.616Z,100.00
2023-03-16T06:28:35.465Z,99.95
2023-03-16T06:31:07.473Z,99.67
2023-03-16T06:33:34.463Z,99.57
2023-03-16T06:36:02.050Z,99.63
2023-03-16T06:38:29.453Z,99.31
2023-03-16T06:40:56.252Z,99.15
2023-03-16T06:43:23.232Z,99.34
2023-03-16T06:45:50.011Z,99.04
2023-03-16T06:48:17.142Z,99.06
2023-03-16T06:50:45.454Z,99.03
2023-03-16T06:53:12.304Z,98.88
2023-03-16T06:55:39.154Z,98.34
2023-03-16T06:58:06.023Z,98.27
2023-03-16T07:00:34.342Z,98.48
2023-03-16T07:03:02.277Z,98.59
2023-03-16T07:05:29.313Z,98.51
2023-03-16T07:07:56.064Z,97.99
2023-03-16T07:10:22.852Z,98.21
2023-03-16T07:12:50.577Z,98.01
2023-03-16T07:15:19.133Z,97.70
2023-03-16T07:17:45.845Z,97.69
2023-03-16T07:20:13.001Z,97.25
2023-03-16T07:22:40.729Z,97.50
2023-03-16T07:25:07.818Z,97.61
2023-03-16T07:27:34.561Z,97.85
2023-03-16T07:30:01.362Z,97.66
2023-03-16T07:32:28.463Z,97.46
2023-03-16T07:34:56.929Z,97.22
2023-03-16T07:37:25.809Z,96.86
2023-03-16T07:39:52.723Z,96.93
2023-03-16T07:42:21.167Z,96.97
2023-03-16T07:44:49.046Z,96.65
2023-03-16T07:47:16.884Z,96.55
2023-03-16T07:49:44.468Z,96.19
2023-03-16T07:52:13.971Z,96.14
2023-03-16T07:54:41.274Z,96.54
2023-03-16T07:57:08.411Z,97.05
2023-03-16T07:59:35.340Z,97.06
2023-03-16T08:02:03.257Z,96.54
2023-03-16T08:04:30.404Z,96.28
2023-03-16T08:07:00.543Z,95.97
2023-03-16T08:09:27.759Z,95.71
2023-03-16T08:11:54.785Z,95.08
2023-03-16T08:14:22.638Z,95.00
2023-03-16T08:16:49.457Z,94.68
2023-03-16T08:19:17.665Z,94.67
2023-03-16T08:22:00.430Z,94.44
2023-03-16T08:24:28.425Z,94.67
2023-03-16T08:26:56.807Z,94.33
2023-03-16T08:29:24.152Z,94.37
2023-03-16T08:31:51.671Z,93.99
2023-03-16T08:34:19.832Z,93.32
2023-03-16T08:36:46.659Z,93.18
2023-03-16T08:39:13.582Z,93.35
2023-03-16T08:41:41.373Z,93.09
2023-03-16T08:44:08.098Z,93.18
2023-03-16T08:46:35.885Z,92.77
2023-03-16T08:49:03.411Z,92.38
2023-03-16T08:51:31.488Z,92.72
2023-03-16T08:53:59.109Z,93.05
2023-03-16T08:56:25.937Z,92.91
2023-03-16T08:58:53.364Z,92.28
2023-03-16T09:01:20.559Z,91.77
2023-03-16T09:03:47.844Z,91.14
2023-03-16T09:06:16.176Z,90.47
2023-03-16T09:08:45.688Z,90.58
2023-03-16T09:11:18.152Z,90.51
2023-03-16T09:13:45.160Z,90.99
2023-03-16T09:16:13.175Z,91.18
2023-03-16T09:18:40.343Z,91.18
2023-03-16T09:21:13.386Z,90.19
2023-03-16T09:23:42.156Z,91.00
2023-03-16T09:26:09.056Z,90.93
2023-03-16T09:28:36.563Z,90.20
2023-03-16T09:31:17.463Z,90.24
2023-03-16T09:33:44.304Z,90.05
2023-03-16T09:36:14.385Z,90.09
2023-03-16T09:38:41.578Z,90.06
2023-03-16T09:41:12.663Z,89.75
2023-03-16T09:43:39.920Z,89.03
2023-03-16T09:46:23.004Z,88.80
2023-03-16T09:48:50.022Z,89.31
2023-03-16T09:51:25.895Z,88.25
2023-03-16T09:53:56.922Z,87.80
2023-03-16T09:56:36.970Z,87.40
2023-03-16T09:59:10.816Z,86.95
2023-03-16T10:01:40.855Z,86.67
2023-03-16T10:04:26.776Z,87.00
2023-03-16T10:07:19.940Z,86.30
2023-03-16T10:10:07.002Z,85.75
2023-03-16T10:12:37.815Z,86.15
2023-03-16T10:15:17.157Z,85.54
2023-03-16T10:17:52.380Z,84.79
2023-03-16T10:20:22.123Z,84.87
2023-03-16T10:22:53.758Z,85.01
2023-03-16T10:25:24.109Z,83.53
2023-03-16T10:27:52.521Z,83.38
2023-03-16T10:30:25.267Z,83.58
2023-03-16T10:32:53.548Z,82.39
2023-03-16T10:35:32.284Z,82.49
2023-03-16T10:37:59.728Z,81.92
2023-03-16T10:40:27.028Z,81.35
2023-03-16T10:42:55.464Z,81.62
2023-03-16T10:45:31.135Z,80.39
2023-03-16T10:48:09.250Z,80.03
2023-03-16T10:50:36.564Z,79.58
2023-03-16T10:53:03.426Z,79.46
2023-03-16T10:55:34.434Z,78.91
2023-03-16T10:58:01.909Z,79.06
2023-03-16T11:00:47.865Z,76.96
2023-03-16T11:03:29.231Z,77.15
2023-03-16T11:06:00.967Z,75.58
2023-03-16T11:08:33.810Z,74.66
2023-03-16T11:11:15.126Z,73.83
2023-03-16T11:13:46.247Z,73.98
2023-03-16T11:16:33.587Z,73.96
2023-03-16T11:19:05.902Z,73.28
2023-03-16T11:21:55.237Z,72.57
2023-03-16T11:24:46.407Z,72.65
2023-03-16T11:27:23.527Z,71.16
2023-03-16T11:30:09.989Z,70.95
2023-03-16T11:32:42.159Z,71.96
2023-03-16T11:35:19.269Z,71.53
2023-03-16T11:37:50.861Z,70.69
2023-03-16T11:40:38.755Z,69.31
2023-03-16T11:43:20.251Z,69.01
2023-03-16T11:45:59.189Z,68.82
2023-03-16T11:48:32.649Z,68.96
2023-03-16T11:51:13.923Z,68.92
2023-03-16T11:53:43.984Z,68.36
2023-03-16T11:56:17.456Z,68.31
2023-03-16T11:58:51.175Z,68.41
2023-03-16T12:01:25.961Z,69.01
2023-03-16T12:03:55.384Z,69.76
2023-03-16T12:06:24.096Z,70.79
2023-03-16T12:08:58.173Z,69.44
2023-03-16T12:11:27.663Z,68.71
2023-03-16T12:14:06.629Z,69.25
2023-03-16T12:16:49.417Z,68.48
2023-03-16T12:19:22.152Z,67.55
2023-03-16T12:21:53.728Z,67.94
2023-03-16T12:24:24.649Z,67.38
2023-03-16T12:26:52.433Z,68.63
2023-03-16T12:29:29.082Z,69.36
2023-03-16T12:32:08.663Z,70.10
2023-03-16T12:34:47.618Z,70.21
2023-03-16T12:37:19.693Z,70.20
2023-03-16T12:39:55.568Z,71.31
2023-03-16T12:42:22.253Z,71.58
2023-03-16T12:44:57.728Z,69.04
2023-03-16T12:47:32.331Z,69.01
2023-03-16T12:50:09.594Z,68.84
2023-03-16T12:52:40.107Z,69.07
2023-03-16T12:55:12.486Z,69.93
2023-03-16T12:57:41.114Z,69.45
2023-03-16T13:00:10.173Z,69.35
2023-03-16T13:02:38.584Z,69.33
2023-03-16T13:05:10.526Z,69.18
2023-03-16T13:07:39.245Z,68.65
2023-03-16T13:10:14.170Z,69.29
2023-03-16T13:12:44.058Z,68.30
2023-03-16T13:15:25.874Z,67.54
2023-03-16T13:18:06.812Z,68.85
2023-03-16T13:20:35.434Z,68.10
2023-03-16T13:23:10.463Z,69.37
2023-03-16T13:25:40.162Z,69.16
2023-03-16T13:28:11.221Z,69.25
2023-03-16T13:30:37.900Z,69.96
2023-03-16T13:33:19.036Z,69.95
2023-03-16T13:35:46.576Z,70.34
2023-03-16T13:38:16.040Z,70.39
2023-03-16T13:40:46.632Z,70.22
2023-03-16T13:43:17.520Z,69.91
2023-03-16T13:45:44.344Z,69.55
2023-03-16T13:48:12.350Z,69.99
2023-03-16T13:50:41.479Z,69.40
2023-03-16T13:53:33.192Z,69.79
2023-03-16T13:56:02.345Z,69.95
2023-03-16T13:58:35.659Z,69.87
2023-03-16T14:01:26.432Z,70.10
2023-03-16T14:03:59.058Z,69.97
2023-03-16T14:06:29.740Z,70.11
2023-03-16T14:08:58.865Z,70.34
2023-03-16T14:11:28.716Z,69.69
2023-03-16T14:13:56.469Z,69.86
2023-03-16T14:16:24.598Z,69.34
2023-03-16T14:18:57.811Z,69.69
2023-03-16T14:21:26.341Z,69.83
2023-03-16T14:23:55.524Z,69.79
2023-03-16T14:26:22.765Z,70.32
2023-03-16T14:28:57.604Z,70.25
2023-03-16T14:31:32.307Z,70.86
2023-03-16T14:34:08.900Z,70.80
2023-03-16T14:36:37.448Z,70.44
2023-03-16T14:39:11.391Z,70.56
2023-03-16T14:41:39.219Z,71.28
2023-03-16T14:44:06.535Z,71.87
2023-03-16T14:46:34.788Z,71.58
2023-03-16T14:49:02.295Z,72.27
2023-03-16T14:51:30.044Z,72.46
2023-03-16T14:53:56.829Z,71.78
2023-03-16T14:56:25.001Z,72.19
2023-03-16T14:58:51.930Z,72.83
2023-03-16T15:01:20.861Z,72.37
2023-03-16T15:03:47.671Z,71.77
2023-03-16T15:06:15.387Z,71.67
2023-03-16T15:08:45.307Z,71.69
2023-03-16T15:11:21.550Z,72.24
2023-03-16T15:13:48.747Z,71.60
2023-03-16T15:16:15.522Z,71.22
2023-03-16T15:18:42.897Z,71.66
2023-03-16T15:21:21.885Z,71.23
2023-03-16T15:23:49.133Z,71.84
2023-03-16T15:26:16.739Z,72.04
2023-03-16T15:28:43.473Z,71.58
2023-03-16T15:31:17.376Z,71.36
2023-03-16T15:33:45.514Z,72.06
2023-03-16T15:36:22.526Z,72.16
2023-03-16T15:38:50.776Z,71.61
2023-03-16T15:41:19.091Z,72.70
2023-03-16T15:43:45.987Z,71.29
2023-03-16T15:46:12.981Z,71.42
2023-03-16T15:48:39.809Z,71.16
2023-03-16T15:51:13.454Z,71.89
2023-03-16T15:53:45.816Z,70.72
2023-03-16T15:56:14.612Z,71.67
2023-03-16T15:58:43.668Z,71.32
2023-03-16T16:01:23.492Z,70.89
2023-03-16T16:03:51.550Z,70.64
2023-03-16T16:06:18.388Z,70.69
2023-03-16T16:08:45.121Z,71.04
2023-03-16T16:11:38.226Z,71.86
2023-03-16T16:14:05.196Z,71.43
2023-03-16T16:16:33.941Z,70.80
2023-03-16T16:19:00.846Z,71.16
2023-03-16T16:21:29.296Z,70.75
2023-03-16T16:23:56.137Z,71.40
2023-03-16T16:26:55.221Z,70.66
2023-03-16T16:29:23.760Z,70.45
2023-03-16T16:31:51.978Z,71.30
2023-03-16T16:34:22.612Z,71.50
2023-03-16T16:36:49.731Z,72.19
2023-03-16T16:39:17.115Z,70.88
2023-03-16T16:41:44.267Z,70.99
2023-03-16T16:44:15.845Z,70.83
2023-03-16T16:46:42.758Z,70.99
2023-03-16T16:49:12.761Z,71.06
2023-03-16T16:51:39.909Z,71.72
2023-03-16T16:54:14.087Z,72.47
2023-03-16T16:56:42.117Z,71.79
2023-03-16T16:59:25.962Z,71.60
2023-03-16T17:01:54.230Z,71.76
2023-03-16T17:04:25.846Z,71.70
2023-03-16T17:06:57.731Z,72.00
2023-03-16T17:09:25.355Z,72.61
2023-03-16T17:11:52.410Z,71.55
2023-03-16T17:14:20.228Z,71.67
2023-03-16T17:16:48.649Z,71.91
2023-03-16T17:19:23.438Z,72.24
2023-03-16T17:21:50.719Z,71.12
2023-03-16T17:24:17.398Z,71.35
2023-03-16T17:26:48.160Z,71.28
2023-03-16T17:29:21.265Z,72.06
2023-03-16T17:31:48.545Z,71.07
2023-03-16T17:34:20.503Z,72.74
2023-03-16T17:36:47.160Z,72.83
2023-03-16T17:39:40.599Z,73.03
2023-03-16T17:42:12.321Z,72.04
2023-03-16T17:44:43.645Z,72.03
2023-03-16T17:47:18.525Z,72.85
2023-03-16T17:49:48.789Z,72.58
2023-03-16T17:52:18.555Z,72.55
2023-03-16T17:54:46.537Z,72.63
2023-03-16T17:57:16.569Z,72.92
2023-03-16T17:59:43.538Z,72.51
2023-03-16T18:02:35.159Z,72.46
2023-03-16T18:05:02.008Z,72.31
2023-03-16T18:07:28.815Z,72.13
2023-03-16T18:09:55.481Z,73.24
2023-03-16T18:12:22.318Z,71.94
2023-03-16T18:14:49.048Z,71.89
2023-03-16T18:17:21.989Z,73.15
2023-03-16T18:19:49.869Z,73.51
2023-03-16T18:22:20.425Z,72.74
2023-03-16T18:24:48.670Z,72.78
2023-03-16T18:27:15.972Z,73.20
2023-03-16T18:29:42.833Z,73.49
2023-03-16T18:32:35.849Z,72.25
2023-03-16T18:35:04.078Z,72.63
2023-03-16T18:37:31.244Z,72.43
2023-03-16T18:39:58.037Z,73.17
2023-03-16T18:42:26.386Z,73.51
2023-03-16T18:44:53.152Z,73.47
2023-03-16T18:47:22.510Z,74.13
2023-03-16T18:49:51.597Z,74.04
2023-03-16T18:52:29.382Z,73.73
2023-03-16T18:54:57.924Z,74.25
2023-03-16T18:57:28.252Z,74.13
2023-03-16T18:59:55.624Z,74.08
2023-03-16T19:02:25.422Z,74.24
2023-03-16T19:04:52.631Z,75.04
2023-03-16T19:07:48.788Z,73.52
2023-03-16T19:10:20.955Z,73.50
2023-03-16T19:12:47.769Z,73.57
2023-03-16T19:15:19.248Z,74.13
2023-03-16T19:17:46.760Z,74.56
2023-03-16T19:20:17.637Z,73.91
2023-03-16T19:22:46.150Z,73.70
2023-03-16T19:25:20.304Z,74.33
2023-03-16T19:27:47.898Z,73.77
2023-03-16T19:30:23.343Z,73.25
2023-03-16T19:32:51.061Z,74.17
2023-03-16T19:35:18.788Z,73.59
2023-03-16T19:37:45.763Z,73.97
2023-03-16T19:40:13.565Z,73.58
2023-03-16T19:42:42.391Z,73.00
2023-03-16T19:45:17.928Z,73.38
2023-03-16T19:47:45.328Z,73.51
2023-03-16T19:50:21.764Z,73.35
2023-03-16T19:52:49.430Z,72.89
2023-03-16T19:55:18.143Z,73.35
2023-03-16T19:57:46.177Z,74.24
2023-03-16T20:00:22.185Z,74.87
2023-03-16T20:02:49.477Z,74.56
2023-03-16T20:05:23.411Z,74.74
2023-03-16T20:07:50.589Z,75.15
2023-03-16T20:10:19.439Z,74.91
2023-03-16T20:12:47.137Z,75.04
2023-03-16T20:15:18.363Z,75.50
2023-03-16T20:17:45.391Z,75.09
2023-03-16T20:20:18.442Z,75.32
2023-03-16T20:22:45.217Z,76.03
2023-03-16T20:25:12.266Z,75.41
2023-03-16T20:27:40.537Z,75.35
2023-03-16T20:30:17.349Z,75.25
2023-03-16T20:32:44.754Z,75.64
2023-03-16T20:35:15.842Z,76.29
2023-03-16T20:37:42.923Z,76.32
2023-03-16T20:40:10.957Z,76.16
2023-03-16T20:42:38.152Z,76.93
2023-03-16T20:45:25.110Z,76.54
2023-03-16T20:47:52.571Z,77.59
2023-03-16T20:50:24.508Z,78.56
2023-03-16T20:52:52.043Z,80.52
2023-03-16T20:55:21.697Z,81.60
2023-03-16T20:57:48.952Z,82.20
2023-03-16T21:00:26.756Z,83.98
2023-03-16T21:02:55.089Z,83.50
2023-03-16T21:05:22.869Z,83.19
2023-03-16T21:07:50.103Z,83.68
2023-03-16T21:10:21.208Z,84.25
2023-03-16T21:12:51.436Z,84.74
2023-03-16T21:15:29.650Z,85.62
2023-03-16T21:17:56.771Z,86.41
2023-03-16T21:20:24.753Z,86.04
2023-03-16T21:22:52.739Z,86.08
2023-03-16T21:25:23.172Z,86.44
2023-03-16T21:27:50.996Z,86.67
2023-03-16T21:30:29.131Z,87.36
2023-03-16T21:32:56.748Z,88.18
2023-03-16T21:35:26.552Z,89.11
2023-03-16T21:37:53.288Z,89.75
2023-03-16T21:40:22.043Z,89.93
2023-03-16T21:42:49.300Z,90.64
2023-03-16T21:45:16.173Z,91.65
2023-03-16T21:47:43.843Z,91.41
2023-03-16T21:50:22.550Z,91.18
2023-03-16T21:52:50.415Z,91.51
2023-03-16T21:55:23.582Z,91.56
2023-03-16T21:57:51.488Z,91.80
2023-03-16T22:00:20.879Z,92.23
2023-03-16T22:02:48.608Z,92.62
2023-03-16T22:05:21.389Z,92.93
2023-03-16T22:07:48.061Z,92.90
2023-03-16T22:10:15.162Z,92.68
2023-03-16T22:12:42.466Z,92.80
2023-03-16T22:15:09.518Z,93.18
2023-03-16T22:17:36.987Z,93.08
2023-03-16T22:20:13.928Z,93.13
2023-03-16T22:22:40.903Z,93.88
2023-03-16T22:25:18.142Z,93.82
2023-03-16T22:27:45.988Z,93.97
2023-03-16T22:30:19.501Z,94.13
2023-03-16T22:32:48.216Z,94.16
2023-03-16T22:35:36.405Z,93.99
2023-03-16T22:38:05.981Z,93.98
2023-03-16T22:40:37.468Z,93.91
2023-03-16T22:43:05.731Z,94.06
2023-03-16T22:45:33.845Z,94.27
2023-03-16T22:48:02.759Z,94.39
2023-03-16T22:50:31.446Z,94.39
2023-03-16T22:52:59.829Z,94.42
2023-03-16T22:55:38.278Z,94.08
2023-03-16T22:58:08.722Z,93.92
2023-03-16T23:00:35.591Z,94.08
2023-03-16T23:03:02.322Z,94.00
2023-03-16T23:05:30.042Z,94.21
2023-03-16T23:08:00.071Z,94.10
2023-03-16T23:10:28.661Z,93.89
2023-03-16T23:12:55.880Z,93.62
2023-03-16T23:15:27.991Z,93.72
2023-03-16T23:17:54.816Z,93.79
2023-03-16T23:20:30.211Z,93.80
2023-03-16T23:22:57.085Z,93.91
2023-03-16T23:25:24.286Z,94.00
2023-03-16T23:27:52.032Z,93.80
2023-03-16T23:30:21.037Z,93.69
2023-03-16T23:32:48.169Z,93.54
2023-03-16T23:35:20.359Z,93.28
2023-03-16T23:37:47.256Z,93.39
2023-03-16T23:40:14.624Z,93.64
2023-03-16T23:42:42.413Z,93.28
2023-03-16T23:45:32.110Z,92.87
2023-03-16T23:47:59.848Z,93.32
2023-03-16T23:50:29.249Z,93.19
2023-03-16T23:52:56.843Z,92.85
2023-03-16T23:55:23.943Z,93.08
2023-03-16T23:57:50.730Z,92.81
